Time;durP1;ratioP1;P1;durP2;ratioP2;P2;SDS_P1;SDS_P2;PMS_P1;PMS_P2;Temp;Humidity;BMP_temperature;BMP_pressure;BME280_temperature;BME280_humidity;BME280_pressure;Samples;Min_cycle;Max_cycle;Signal;HPM_P1;HPM_P2
2022/08/20 00:00:42;;;;;;;37.53;20.53;;;18.80;99.90;;;;;;4154640;28;20211;-78
2022/08/20 00:02:47;;;;;;;41.27;23.13;;;18.70;99.90;;;;;;4134601;28;20300;-77
2022/08/20 00:04:51;;;;;;;37.20;21.47;;;18.70;99.90;;;;;;4156949;28;20232;-78
2022/08/20 00:06:53;;;;;;;44.07;23.47;;;18.60;99.90;;;;;;4152692;28;20832;-78
2022/08/20 00:08:55;;;;;;;39.23;21.33;;;18.60;99.90;;;;;;4135644;28;20234;-78
2022/08/20 00:10:58;;;;;;;45.87;22.70;;;18.60;99.90;;;;;;4146882;28;20200;-78
2022/08/20 00:13:01;;;;;;;43.87;22.57;;;18.60;99.90;;;;;;4157155;28;20204;-78
2022/08/20 00:15:06;;;;;;;43.47;22.77;;;18.60;99.90;;;;;;4155232;28;20216;-77
2022/08/20 00:17:08;;;;;;;41.37;20.83;;;18.60;99.90;;;;;;4154321;28;20239;-77
2022/08/20 00:19:11;;;;;;;40.60;21.43;;;18.50;99.90;;;;;;4155149;28;20209;-77
2022/08/20 00:21:17;;;;;;;37.10;19.63;;;18.50;99.90;;;;;;4154972;28;20656;-77
2022/08/20 00:23:21;;;;;;;39.40;20.37;;;18.50;99.90;;;;;;4141387;28;20223;-77
2022/08/20 00:25:23;;;;;;;36.00;19.63;;;18.50;99.90;;;;;;4154291;28;20328;-79
2022/08/20 00:27:25;;;;;;;37.70;19.27;;;18.50;99.90;;;;;;4157092;28;20224;-77
2022/08/20 00:29:27;;;;;;;36.87;19.63;;;18.60;99.90;;;;;;4158554;28;20231;-78
2022/08/20 00:31:29;;;;;;;39.43;19.87;;;18.60;99.90;;;;;;4141721;28;20305;-78
2022/08/20 00:33:31;;;;;;;44.00;22.07;;;18.60;99.90;;;;;;4160395;28;20780;-78
2022/08/20 00:35:35;;;;;;;36.60;19.87;;;18.50;99.90;;;;;;4159084;28;20215;-78
2022/08/20 00:37:39;;;;;;;36.50;19.73;;;18.50;99.90;;;;;;4156873;28;20221;-78
2022/08/20 00:39:41;;;;;;;37.83;19.90;;;18.50;99.90;;;;;;4156339;28;20643;-77
2022/08/20 00:41:43;;;;;;;42.07;19.87;;;18.50;99.90;;;;;;4158227;28;20237;-78
2022/08/20 00:43:47;;;;;;;39.27;19.53;;;18.60;99.90;;;;;;4160026;28;20260;-78
2022/08/20 00:45:54;;;;;;;46.40;21.80;;;18.60;99.90;;;;;;4158403;28;20299;-79
2022/08/20 00:47:56;;;;;;;45.33;21.87;;;18.50;99.90;;;;;;4161537;28;20229;-79
2022/08/20 00:49:58;;;;;;;44.83;22.47;;;18.50;99.90;;;;;;4140917;28;20210;-79
2022/08/20 00:52:03;;;;;;;46.83;22.40;;;18.50;99.90;;;;;;4162604;28;20215;-79
2022/08/20 00:54:13;;;;;;;49.47;23.73;;;18.50;99.90;;;;;;4161307;28;20209;-78
2022/08/20 00:56:15;;;;;;;45.17;22.37;;;18.50;99.90;;;;;;4148247;28;20758;-79
2022/08/20 00:58:18;;;;;;;46.93;22.53;;;18.50;99.90;;;;;;4164126;28;20724;-79
2022/08/20 01:00:23;;;;;;;46.57;22.50;;;18.50;99.90;;;;;;4163722;28;20284;-78
2022/08/20 01:02:28;;;;;;;45.20;22.60;;;18.50;99.90;;;;;;4158938;28;20742;-78
2022/08/20 01:04:32;;;;;;;44.93;21.80;;;18.40;99.90;;;;;;4162098;28;20689;-78
2022/08/20 01:06:34;;;;;;;49.83;23.93;;;18.40;99.90;;;;;;4161594;28;20259;-78
2022/08/20 01:08:37;;;;;;;50.13;22.97;;;18.40;99.90;;;;;;4160469;28;20239;-77
2022/08/20 01:10:43;;;;;;;47.30;22.13;;;18.40;99.90;;;;;;4157705;28;20627;-78
2022/08/20 01:12:47;;;;;;;43.30;22.87;;;18.40;99.90;;;;;;4159723;28;20342;-78
2022/08/20 01:14:50;;;;;;;47.40;22.43;;;18.40;99.90;;;;;;4140825;28;20421;-81
2022/08/20 01:16:56;;;;;;;47.17;22.43;;;18.40;99.90;;;;;;4145031;28;20259;-78
2022/08/20 01:18:59;;;;;;;45.17;22.27;;;18.40;99.90;;;;;;4160359;28;20206;-79
2022/08/20 01:21:04;;;;;;;49.30;22.83;;;18.40;99.90;;;;;;4157204;28;20200;-78
2022/08/20 01:23:26;;;;;;;45.67;21.63;;;18.40;99.90;;;;;;4138477;28;20342;-80
2022/08/20 01:25:38;;;;;;;40.27;19.73;;;18.40;99.90;;;;;;4159510;28;20208;-81
2022/08/20 01:27:40;;;;;;;43.60;21.00;;;18.40;99.90;;;;;;4164927;28;20274;-78
2022/08/20 01:29:43;;;;;;;48.20;22.60;;;18.40;99.90;;;;;;4165998;28;20274;-78
2022/08/20 01:31:45;;;;;;;41.10;20.27;;;18.30;99.90;;;;;;4144629;28;20212;-78
2022/08/20 01:33:48;;;;;;;41.50;19.50;;;18.30;99.90;;;;;;4155395;28;20230;-78
2022/08/20 01:35:52;;;;;;;42.13;21.20;;;18.30;99.90;;;;;;4161759;28;20291;-81
2022/08/20 01:37:54;;;;;;;38.27;19.07;;;18.40;99.90;;;;;;4144258;28;20320;-78
2022/08/20 01:39:56;;;;;;;43.67;21.10;;;18.40;99.90;;;;;;4156250;28;20230;-78
2022/08/20 01:42:07;;;;;;;42.03;20.47;;;18.40;99.90;;;;;;4159457;28;20300;-78
2022/08/20 01:44:11;;;;;;;43.00;20.07;;;18.40;99.90;;;;;;4161246;28;20219;-78
2022/08/20 01:46:13;;;;;;;44.70;19.80;;;18.40;99.90;;;;;;4159744;28;20203;-78
2022/08/20 01:48:16;;;;;;;45.03;20.37;;;18.40;99.90;;;;;;4158977;28;20234;-78
2022/08/20 01:50:24;;;;;;;44.30;20.77;;;18.30;99.90;;;;;;4158438;28;20244;-78
2022/08/20 01:52:33;;;;;;;44.77;20.37;;;18.30;99.90;;;;;;4157746;28;20695;-78
2022/08/20 01:54:36;;;;;;;39.43;19.23;;;18.40;99.90;;;;;;4158587;28;20195;-78
2022/08/20 01:56:52;;;;;;;38.37;18.80;;;18.30;99.90;;;;;;4162012;28;20216;-78
2022/08/20 01:58:58;;;;;;;38.67;18.77;;;18.30;99.90;;;;;;4162382;28;20208;-78
2022/08/20 02:01:00;;;;;;;36.67;18.43;;;18.30;99.90;;;;;;4165860;28;20545;-78
2022/08/20 02:03:03;;;;;;;41.10;19.03;;;18.40;99.90;;;;;;4161979;28;20205;-77
2022/08/20 02:05:05;;;;;;;41.10;19.73;;;18.30;99.90;;;;;;4145543;28;20228;-78
2022/08/20 02:07:13;;;;;;;41.97;19.70;;;18.30;99.90;;;;;;4158677;28;20258;-78
2022/08/20 02:09:15;;;;;;;40.27;18.53;;;18.40;99.90;;;;;;4159943;28;20207;-78
2022/08/20 02:11:17;;;;;;;39.50;19.37;;;18.40;99.90;;;;;;4157870;28;20224;-78
2022/08/20 02:13:19;;;;;;;35.40;17.93;;;18.40;99.90;;;;;;4159775;28;20201;-78
2022/08/20 02:15:22;;;;;;;37.00;17.93;;;18.40;99.90;;;;;;4163438;28;20209;-78
2022/08/20 02:17:25;;;;;;;36.77;17.83;;;18.30;99.90;;;;;;4157558;28;20721;-78
2022/08/20 02:19:33;;;;;;;36.00;17.67;;;18.30;99.90;;;;;;4141123;28;20242;-78
2022/08/20 02:21:36;;;;;;;42.00;18.97;;;18.30;99.90;;;;;;4159088;28;20211;-78
2022/08/20 02:23:38;;;;;;;42.63;19.93;;;18.40;99.90;;;;;;4151914;28;20204;-78
2022/08/20 02:25:42;;;;;;;41.67;19.43;;;18.40;99.90;;;;;;4137848;28;20223;-78
2022/08/20 02:27:47;;;;;;;36.87;18.77;;;18.30;99.90;;;;;;4162788;28;20232;-78
2022/08/20 02:29:49;;;;;;;39.43;18.17;;;18.30;99.90;;;;;;4156652;28;20218;-78
2022/08/20 02:31:53;;;;;;;36.60;18.10;;;18.30;99.90;;;;;;4134669;28;20225;-78
2022/08/20 02:33:55;;;;;;;44.33;20.37;;;18.40;99.90;;;;;;4157629;28;20206;-78
2022/08/20 02:35:57;;;;;;;38.30;18.20;;;18.30;99.90;;;;;;4153131;28;20296;-77
2022/08/20 02:37:59;;;;;;;45.33;20.70;;;18.30;99.90;;;;;;4157100;28;20738;-78
2022/08/20 02:40:02;;;;;;;44.17;20.60;;;18.30;99.90;;;;;;4160086;28;20300;-77
2022/08/20 02:42:04;;;;;;;43.03;19.60;;;18.30;99.90;;;;;;4151741;28;20295;-78
2022/08/20 02:44:06;;;;;;;44.30;20.53;;;18.30;99.90;;;;;;4136013;28;20227;-78
2022/08/20 02:46:08;;;;;;;50.90;21.77;;;18.30;99.90;;;;;;4160582;28;20246;-77
2022/08/20 02:48:19;;;;;;;58.67;23.67;;;18.30;99.90;;;;;;4155669;28;20231;-78
2022/08/20 02:50:23;;;;;;;56.47;24.60;;;18.30;99.90;;;;;;4155908;28;20698;-78
2022/08/20 02:52:25;;;;;;;49.67;22.37;;;18.30;99.90;;;;;;4141742;28;20280;-78
2022/08/20 02:54:28;;;;;;;51.80;24.30;;;18.30;99.90;;;;;;4156513;28;20197;-78
2022/08/20 02:56:29;;;;;;;55.63;24.83;;;18.30;99.90;;;;;;4160951;28;20288;-78
2022/08/20 02:58:34;;;;;;;62.13;25.30;;;18.30;99.90;;;;;;4157916;28;20268;-78
2022/08/20 03:00:36;;;;;;;60.13;25.83;;;18.30;99.90;;;;;;4156708;28;20220;-78
2022/08/20 03:02:38;;;;;;;54.43;24.27;;;18.30;99.90;;;;;;4158706;28;20291;-78
2022/08/20 03:04:42;;;;;;;54.03;23.73;;;18.30;99.90;;;;;;4155615;28;20383;-78
2022/08/20 03:06:44;;;;;;;47.70;21.30;;;18.30;99.90;;;;;;4155521;28;20216;-78
2022/08/20 03:08:46;;;;;;;49.60;22.07;;;18.30;99.90;;;;;;4152337;28;20212;-78
2022/08/20 03:10:48;;;;;;;56.37;25.03;;;18.30;99.90;;;;;;4155204;28;20303;-78
2022/08/20 03:12:51;;;;;;;57.53;25.50;;;18.30;99.90;;;;;;4157353;28;20299;-78
2022/08/20 03:14:53;;;;;;;52.07;22.60;;;18.30;99.90;;;;;;4155656;28;20195;-78
2022/08/20 03:16:55;;;;;;;67.87;26.90;;;18.30;99.90;;;;;;4158539;28;20267;-78
2022/08/20 03:18:57;;;;;;;63.80;26.43;;;18.30;99.90;;;;;;4162735;28;20211;-78
2022/08/20 03:21:00;;;;;;;54.33;24.70;;;18.30;99.90;;;;;;4145245;28;20325;-78
2022/08/20 03:23:03;;;;;;;58.17;24.80;;;18.30;99.90;;;;;;4154331;28;20264;-78
2022/08/20 03:25:06;;;;;;;58.60;26.43;;;18.30;99.90;;;;;;4158381;28;20228;-78
2022/08/20 03:27:08;;;;;;;60.03;27.20;;;18.20;99.90;;;;;;4155689;28;20305;-78
2022/08/20 03:29:10;;;;;;;66.83;28.40;;;18.20;99.90;;;;;;4157460;28;20257;-79
2022/08/20 03:31:14;;;;;;;64.47;27.73;;;18.20;99.90;;;;;;4153334;28;20656;-78
2022/08/20 03:33:16;;;;;;;65.50;26.30;;;18.20;99.90;;;;;;4154785;28;20636;-79
2022/08/20 03:35:20;;;;;;;54.47;25.27;;;18.20;99.90;;;;;;4157090;28;20229;-79
2022/08/20 03:37:24;;;;;;;63.93;26.13;;;18.20;99.90;;;;;;4152578;28;20234;-79
2022/08/20 03:39:26;;;;;;;51.93;24.07;;;18.20;99.90;;;;;;4156450;28;20206;-79
2022/08/20 03:41:28;;;;;;;59.07;25.00;;;18.20;99.90;;;;;;4146474;28;20734;-78
2022/08/20 03:43:31;;;;;;;59.40;25.87;;;18.20;99.90;;;;;;4153200;28;20295;-78
2022/08/20 03:45:33;;;;;;;71.03;29.23;;;18.20;99.90;;;;;;4137043;28;20228;-79
2022/08/20 03:47:35;;;;;;;66.97;29.20;;;18.20;99.90;;;;;;4160520;28;20274;-79
2022/08/20 03:49:37;;;;;;;59.93;27.03;;;18.20;99.90;;;;;;4159381;28;20240;-78
2022/08/20 03:51:39;;;;;;;63.70;27.40;;;18.20;99.90;;;;;;4164244;28;20294;-78
2022/08/20 03:53:42;;;;;;;62.27;26.50;;;18.20;99.90;;;;;;4161680;28;20279;-78
2022/08/20 03:55:46;;;;;;;71.60;28.77;;;18.10;99.90;;;;;;4155124;28;20637;-78
2022/08/20 03:57:51;;;;;;;70.27;28.67;;;18.10;99.90;;;;;;4157752;28;20283;-78
2022/08/20 03:59:52;;;;;;;72.10;29.47;;;18.00;99.90;;;;;;4161373;28;20196;-78
2022/08/20 04:01:55;;;;;;;68.27;28.03;;;18.00;99.90;;;;;;4158357;28;20208;-78
2022/08/20 04:03:57;;;;;;;64.83;28.00;;;18.10;99.90;;;;;;4159029;28;20199;-78
2022/08/20 04:05:59;;;;;;;69.63;28.73;;;18.10;99.90;;;;;;4158386;28;20215;-78
2022/08/20 04:08:04;;;;;;;68.87;27.60;;;18.10;99.90;;;;;;4163944;28;20255;-79
2022/08/20 04:10:09;;;;;;;64.73;27.47;;;18.10;99.90;;;;;;4159476;28;20294;-78
2022/08/20 04:12:12;;;;;;;55.37;23.97;;;18.10;99.90;;;;;;4162762;28;20277;-78
2022/08/20 04:14:14;;;;;;;55.47;24.37;;;18.10;99.90;;;;;;4145160;28;20208;-78
2022/08/20 04:16:16;;;;;;;63.57;26.43;;;18.10;99.90;;;;;;4158804;28;20214;-79
2022/08/20 04:18:19;;;;;;;64.00;26.33;;;18.10;99.90;;;;;;4163544;28;20624;-78
2022/08/20 04:20:24;;;;;;;69.67;28.17;;;18.10;99.90;;;;;;4160654;28;20246;-78
2022/08/20 04:22:26;;;;;;;59.03;26.23;;;18.10;99.90;;;;;;4149791;28;20238;-78
2022/08/20 04:24:28;;;;;;;60.13;24.83;;;18.10;99.90;;;;;;4161918;28;20239;-78
2022/08/20 04:26:33;;;;;;;69.53;27.83;;;18.10;99.90;;;;;;4158610;28;20657;-78
2022/08/20 04:28:35;;;;;;;67.60;28.87;;;18.10;99.90;;;;;;4161209;28;20258;-78
2022/08/20 04:30:37;;;;;;;64.33;27.57;;;18.10;99.90;;;;;;4161725;28;20713;-78
2022/08/20 04:32:40;;;;;;;66.20;27.60;;;18.10;99.90;;;;;;4161167;28;20204;-78
2022/08/20 04:34:43;;;;;;;60.03;26.10;;;18.10;99.90;;;;;;4159955;28;20199;-78
2022/08/20 04:36:46;;;;;;;58.10;25.67;;;18.10;99.90;;;;;;4155041;28;20220;-78
2022/08/20 04:38:48;;;;;;;59.83;24.80;;;18.10;99.90;;;;;;4151100;28;20656;-78
2022/08/20 04:40:52;;;;;;;63.17;26.90;;;18.10;99.90;;;;;;4160168;28;20239;-78
2022/08/20 04:42:56;;;;;;;69.63;28.17;;;18.10;99.90;;;;;;4157411;28;20772;-78
2022/08/20 04:44:58;;;;;;;60.70;27.30;;;18.10;99.90;;;;;;4136769;28;20238;-78
2022/08/20 04:47:00;;;;;;;56.83;25.03;;;18.10;99.90;;;;;;4157423;28;20714;-78
2022/08/20 04:49:03;;;;;;;55.00;24.30;;;18.10;99.90;;;;;;4159792;28;20584;-78
2022/08/20 04:51:05;;;;;;;61.13;26.33;;;18.10;99.90;;;;;;4153461;28;20932;-78
2022/08/20 04:53:10;;;;;;;58.80;25.97;;;18.10;99.90;;;;;;4136509;28;20218;-78
2022/08/20 04:55:12;;;;;;;59.43;25.73;;;18.10;99.90;;;;;;4154995;28;20632;-78
2022/08/20 04:57:14;;;;;;;58.43;24.97;;;18.10;99.90;;;;;;4147365;28;20234;-78
2022/08/20 04:59:17;;;;;;;57.70;24.27;;;18.10;99.90;;;;;;4155968;28;20262;-78
2022/08/20 05:01:19;;;;;;;52.50;22.37;;;18.10;99.90;;;;;;4153735;28;20239;-78
2022/08/20 05:03:23;;;;;;;56.93;24.20;;;18.10;99.90;;;;;;4139590;28;20219;-78
2022/08/20 05:05:25;;;;;;;46.93;20.73;;;18.10;99.90;;;;;;4139891;28;20235;-78
2022/08/20 05:07:27;;;;;;;47.20;21.77;;;18.20;99.90;;;;;;4155768;28;20227;-78
2022/08/20 05:09:31;;;;;;;48.20;21.20;;;18.20;99.90;;;;;;4136442;28;20209;-77
2022/08/20 05:11:34;;;;;;;42.50;21.33;;;18.20;99.90;;;;;;4136685;28;20220;-78
2022/08/20 05:13:35;;;;;;;43.90;19.53;;;18.20;99.90;;;;;;4156386;28;20200;-78
2022/08/20 05:15:40;;;;;;;49.47;21.50;;;18.20;99.90;;;;;;4159412;28;20838;-78
2022/08/20 05:17:43;;;;;;;53.53;22.27;;;18.30;99.90;;;;;;4155320;28;20733;-78
2022/08/20 05:19:45;;;;;;;51.93;22.83;;;18.30;99.90;;;;;;4161368;28;20213;-78
2022/08/20 05:21:47;;;;;;;50.13;22.73;;;18.20;99.90;;;;;;4164965;28;20207;-78
2022/08/20 05:23:49;;;;;;;55.63;23.43;;;18.20;99.90;;;;;;4161839;28;20238;-78
2022/08/20 05:25:51;;;;;;;55.57;23.37;;;18.30;99.90;;;;;;4143691;28;20231;-78
2022/08/20 05:27:56;;;;;;;57.40;23.40;;;18.30;99.90;;;;;;4146927;28;20225;-78
2022/08/20 05:30:01;;;;;;;66.47;26.47;;;18.40;99.90;;;;;;4159642;28;20315;-79
2022/08/20 05:32:05;;;;;;;51.00;22.73;;;18.40;99.90;;;;;;4162623;28;20884;-78
2022/08/20 05:34:11;;;;;;;57.17;24.03;;;18.40;99.90;;;;;;4160801;28;20872;-78
2022/08/20 05:36:13;;;;;;;63.60;26.40;;;18.50;99.90;;;;;;4150737;28;20205;-78
2022/08/20 05:38:18;;;;;;;60.07;26.17;;;18.50;99.90;;;;;;4159650;28;20643;-79
2022/08/20 05:40:21;;;;;;;65.43;27.10;;;18.40;99.90;;;;;;4142402;28;20222;-78
2022/08/20 05:42:24;;;;;;;59.43;24.93;;;18.50;99.90;;;;;;4144445;28;20215;-78
2022/08/20 05:44:25;;;;;;;64.10;25.53;;;18.50;99.90;;;;;;4161399;28;20220;-79
2022/08/20 05:46:28;;;;;;;68.00;27.83;;;18.50;99.90;;;;;;4139083;28;20884;-78
2022/08/20 05:48:34;;;;;;;74.20;29.53;;;18.50;99.90;;;;;;4143218;28;20237;-79
2022/08/20 05:50:41;;;;;;;77.00;31.40;;;18.60;99.90;;;;;;4158823;28;20205;-79
2022/08/20 05:52:43;;;;;;;73.57;29.40;;;18.60;99.90;;;;;;4159658;28;20214;-79
2022/08/20 05:54:45;;;;;;;82.87;32.20;;;18.60;99.90;;;;;;4140326;28;20745;-78
2022/08/20 05:56:47;;;;;;;74.27;30.00;;;18.60;99.90;;;;;;4139066;28;20721;-79
2022/08/20 05:58:50;;;;;;;62.77;26.93;;;18.60;99.90;;;;;;4161161;28;20215;-78
2022/08/20 06:00:53;;;;;;;72.73;28.73;;;18.60;99.90;;;;;;4159221;28;20723;-79
2022/08/20 06:05:18;;;;;;;76.70;30.57;;;18.60;99.90;;;;;;4159299;28;20224;-78
2022/08/20 06:07:20;;;;;;;66.40;27.53;;;18.60;99.90;;;;;;4158214;28;20230;-78
2022/08/20 06:09:24;;;;;;;76.23;30.03;;;18.60;99.90;;;;;;4139300;28;20612;-78
2022/08/20 06:11:26;;;;;;;63.77;27.57;;;18.60;99.90;;;;;;4156848;28;20267;-79
2022/08/20 06:13:28;;;;;;;77.13;29.23;;;18.60;99.90;;;;;;4154401;28;20210;-78
2022/08/20 06:15:31;;;;;;;79.33;30.10;;;18.60;99.90;;;;;;4154780;28;20292;-79
2022/08/20 06:17:33;;;;;;;72.90;28.33;;;18.60;99.90;;;;;;4141998;28;20767;-78
2022/08/20 06:19:36;;;;;;;66.37;28.57;;;18.70;99.90;;;;;;4151986;28;20216;-78
2022/08/20 06:21:40;;;;;;;68.83;29.13;;;18.60;99.90;;;;;;4151507;28;20277;-79
2022/08/20 06:23:42;;;;;;;71.60;30.17;;;18.60;99.90;;;;;;4156433;28;20236;-79
2022/08/20 06:25:44;;;;;;;75.77;30.13;;;18.60;99.90;;;;;;4151902;28;20212;-78
2022/08/20 06:27:46;;;;;;;66.03;27.93;;;18.60;99.90;;;;;;4137396;28;20292;-79
2022/08/20 06:29:49;;;;;;;73.63;28.63;;;18.50;99.90;;;;;;4157510;28;20228;-79
2022/08/20 06:31:51;;;;;;;70.30;28.73;;;18.50;99.90;;;;;;4157958;28;20208;-79
2022/08/20 06:33:53;;;;;;;68.87;28.87;;;18.50;99.90;;;;;;4156229;28;20204;-78
2022/08/20 06:35:56;;;;;;;66.27;28.67;;;18.50;99.90;;;;;;4155735;28;20231;-78
2022/08/20 06:38:00;;;;;;;64.17;27.57;;;18.50;99.90;;;;;;4158536;28;20219;-79
2022/08/20 06:40:05;;;;;;;66.03;27.17;;;18.50;99.90;;;;;;4157130;28;20212;-78
2022/08/20 06:42:07;;;;;;;64.80;27.03;;;18.50;99.90;;;;;;4148916;28;20610;-80
2022/08/20 06:44:09;;;;;;;61.03;26.23;;;18.50;99.90;;;;;;4154429;28;20208;-79
2022/08/20 06:46:11;;;;;;;55.63;23.97;;;18.60;99.90;;;;;;4155430;28;20240;-79
2022/08/20 06:48:14;;;;;;;69.47;27.70;;;18.60;99.90;;;;;;4157042;28;20318;-79
2022/08/20 06:50:18;;;;;;;60.23;27.37;;;18.60;99.90;;;;;;4152524;28;20217;-79
2022/08/20 06:52:21;;;;;;;64.43;27.33;;;18.60;99.90;;;;;;4152760;28;20304;-79
2022/08/20 06:54:24;;;;;;;64.23;26.90;;;18.60;99.90;;;;;;4155650;28;20385;-79
2022/08/20 06:56:26;;;;;;;62.40;28.40;;;18.60;99.90;;;;;;4151006;28;20285;-79
2022/08/20 06:58:30;;;;;;;64.03;26.87;;;18.60;99.90;;;;;;4157372;28;20263;-79
2022/08/20 07:00:33;;;;;;;64.77;27.80;;;18.60;99.90;;;;;;4136992;28;20217;-79
2022/08/20 07:02:36;;;;;;;63.17;26.53;;;18.60;99.90;;;;;;4159246;28;20301;-78
2022/08/20 07:04:38;;;;;;;62.17;26.17;;;18.60;99.90;;;;;;4151813;28;20209;-79
2022/08/20 07:06:39;;;;;;;61.67;27.07;;;18.60;99.90;;;;;;4138271;28;20224;-79
2022/08/20 07:08:42;;;;;;;58.90;24.93;;;18.60;99.90;;;;;;4134861;28;20629;-80
2022/08/20 07:10:46;;;;;;;55.33;24.43;;;18.60;99.90;;;;;;4157466;28;20229;-79
2022/08/20 07:12:49;;;;;;;67.30;26.83;;;18.60;99.90;;;;;;4136188;28;20279;-79
2022/08/20 07:14:51;;;;;;;74.80;28.53;;;18.60;99.90;;;;;;4157975;28;20203;-78
2022/08/20 07:16:54;;;;;;;70.20;28.30;;;18.60;99.90;;;;;;4136165;28;20722;-78
2022/08/20 07:18:57;;;;;;;69.20;28.13;;;18.60;99.90;;;;;;4157823;28;20563;-80
2022/08/20 07:20:59;;;;;;;74.63;28.07;;;18.70;99.90;;;;;;4154324;28;20209;-79
2022/08/20 07:23:01;;;;;;;75.37;29.43;;;18.60;99.90;;;;;;4138933;28;20582;-79
2022/08/20 07:25:03;;;;;;;72.93;29.40;;;18.60;99.90;;;;;;4153510;28;20291;-79
2022/08/20 07:27:07;;;;;;;77.83;29.23;;;18.60;99.90;;;;;;4151456;28;20236;-78
2022/08/20 07:29:09;;;;;;;84.63;30.63;;;18.60;99.90;;;;;;4157378;28;20299;-79
2022/08/20 07:33:31;;;;;;;86.17;32.40;;;18.60;99.90;;;;;;4141559;28;20202;-79
2022/08/20 07:35:33;;;;;;;94.37;35.00;;;18.60;99.90;;;;;;4138752;28;20209;-79
2022/08/20 07:37:38;;;;;;;102.77;34.50;;;18.70;99.90;;;;;;4155287;28;20232;-78
2022/08/20 07:39:40;;;;;;;89.37;32.63;;;18.60;99.90;;;;;;4158104;28;20206;-78
2022/08/20 07:41:42;;;;;;;82.20;30.47;;;18.60;99.90;;;;;;4155428;28;20210;-79
2022/08/20 07:43:47;;;;;;;84.20;30.80;;;18.70;99.90;;;;;;4158113;28;20296;-79
2022/08/20 07:45:49;;;;;;;98.30;34.40;;;18.60;99.90;;;;;;4154771;28;20330;-80
2022/08/20 07:47:53;;;;;;;98.20;33.23;;;18.60;99.90;;;;;;4154531;28;20234;-79
2022/08/20 07:49:54;;;;;;;89.77;32.53;;;18.60;99.90;;;;;;4151272;28;20239;-79
2022/08/20 07:51:56;;;;;;;89.93;33.47;;;18.60;99.90;;;;;;4155000;28;20215;-78
2022/08/20 07:54:01;;;;;;;96.57;34.43;;;18.50;99.90;;;;;;4157318;28;20237;-78
2022/08/20 07:56:05;;;;;;;101.53;35.10;;;18.50;99.90;;;;;;4155279;28;20590;-79
2022/08/20 07:58:12;;;;;;;93.73;32.97;;;18.50;99.90;;;;;;4158382;28;20703;-79
2022/08/20 08:00:17;;;;;;;88.23;31.97;;;18.50;99.90;;;;;;4158807;28;20205;-80
2022/08/20 08:02:19;;;;;;;90.87;32.30;;;18.50;99.90;;;;;;4137268;28;20213;-81
2022/08/20 08:04:23;;;;;;;97.30;32.97;;;18.50;99.90;;;;;;4140175;28;20216;-80
2022/08/20 08:06:26;;;;;;;103.53;34.13;;;18.50;99.90;;;;;;4158309;28;20304;-79
2022/08/20 08:08:29;;;;;;;93.90;33.00;;;18.50;99.90;;;;;;4142932;28;20317;-78
2022/08/20 08:10:31;;;;;;;96.10;33.23;;;18.50;99.90;;;;;;4154281;28;20210;-79
2022/08/20 08:12:37;;;;;;;88.77;32.33;;;18.50;99.90;;;;;;4152583;28;20590;-78
2022/08/20 08:14:41;;;;;;;83.37;30.33;;;18.60;99.90;;;;;;4155819;28;20208;-79
2022/08/20 08:16:45;;;;;;;83.77;30.93;;;18.50;99.90;;;;;;4156045;28;20231;-79
2022/08/20 08:18:55;;;;;;;74.03;29.70;;;18.50;99.90;;;;;;4157211;28;20215;-78
2022/08/20 08:20:57;;;;;;;76.10;29.30;;;18.50;99.90;;;;;;4151088;28;20212;-78
2022/08/20 08:22:59;;;;;;;75.77;29.30;;;18.50;99.90;;;;;;4156100;28;20204;-78
2022/08/20 08:25:01;;;;;;;74.73;29.00;;;18.50;99.90;;;;;;4138290;28;20211;-78
2022/08/20 08:27:04;;;;;;;72.77;27.13;;;18.50;99.90;;;;;;4142560;28;20250;-78
2022/08/20 08:29:06;;;;;;;74.87;28.30;;;18.60;99.90;;;;;;4144399;28;20846;-78
2022/08/20 08:31:08;;;;;;;72.20;27.10;;;18.60;99.90;;;;;;4151430;28;20216;-79
2022/08/20 08:33:29;;;;;;;80.23;29.40;;;18.60;99.90;;;;;;4136795;28;20308;-78
2022/08/20 08:35:32;;;;;;;85.93;30.07;;;18.60;99.90;;;;;;4153735;28;20201;-79
2022/08/20 08:37:34;;;;;;;90.40;31.60;;;18.60;99.90;;;;;;4152850;28;20313;-79
2022/08/20 08:39:36;;;;;;;80.77;30.03;;;18.60;99.90;;;;;;4156070;28;20754;-78
2022/08/20 08:41:48;;;;;;;73.80;29.27;;;18.60;99.90;;;;;;4140554;28;20259;-78
2022/08/20 08:43:53;;;;;;;74.33;27.33;;;18.70;99.90;;;;;;4147884;28;20208;-79
2022/08/20 08:46:00;;;;;;;76.07;27.73;;;18.60;99.90;;;;;;4143078;28;20704;-80
2022/08/20 08:48:02;;;;;;;78.57;29.40;;;18.60;99.90;;;;;;4145048;28;20226;-79
2022/08/20 08:50:09;;;;;;;86.30;29.50;;;18.60;99.90;;;;;;4162062;28;20755;-79
2022/08/20 08:52:16;;;;;;;79.60;29.20;;;18.60;99.90;;;;;;4157910;28;20292;-78
2022/08/20 08:54:21;;;;;;;78.20;29.40;;;18.70;99.90;;;;;;4157280;28;20247;-79
2022/08/20 08:56:27;;;;;;;70.90;26.63;;;18.60;99.90;;;;;;4139739;28;20204;-78
2022/08/20 08:58:30;;;;;;;69.40;27.73;;;18.70;99.90;;;;;;4140990;28;20229;-79
2022/08/20 09:00:34;;;;;;;68.67;27.00;;;18.70;99.90;;;;;;4161505;28;20205;-79
2022/08/20 09:02:37;;;;;;;70.53;26.93;;;18.70;99.90;;;;;;4157346;28;20932;-79
2022/08/20 09:04:41;;;;;;;65.00;25.43;;;18.80;99.90;;;;;;4158505;28;20669;-78
2022/08/20 09:06:46;;;;;;;74.33;27.20;;;18.80;99.90;;;;;;4140036;28;20228;-80
2022/08/20 09:08:51;;;;;;;69.73;27.30;;;18.80;99.90;;;;;;4135994;28;20232;-80
2022/08/20 09:10:54;;;;;;;78.37;28.53;;;18.80;99.90;;;;;;4156617;28;20787;-79
2022/08/20 09:12:56;;;;;;;80.43;28.93;;;18.80;99.90;;;;;;4152693;28;20261;-79
2022/08/20 09:14:58;;;;;;;70.30;27.13;;;18.80;99.90;;;;;;4152218;28;20211;-80
2022/08/20 09:17:00;;;;;;;69.60;26.73;;;18.80;99.90;;;;;;4154678;28;20618;-80
2022/08/20 09:19:03;;;;;;;66.83;25.37;;;18.90;99.90;;;;;;4161076;28;20240;-80
2022/08/20 09:21:06;;;;;;;67.63;25.33;;;18.90;99.90;;;;;;4153535;28;20216;-79
2022/08/20 09:23:09;;;;;;;68.50;26.13;;;19.00;99.90;;;;;;4151677;28;20212;-79
2022/08/20 09:25:11;;;;;;;68.03;26.83;;;19.00;99.90;;;;;;4151914;28;20218;-78
2022/08/20 09:27:13;;;;;;;74.27;26.07;;;19.00;99.90;;;;;;4159558;28;20231;-81
2022/08/20 09:29:15;;;;;;;71.37;25.33;;;19.10;99.90;;;;;;4142559;28;20313;-79
2022/08/20 09:31:17;;;;;;;67.63;25.57;;;19.00;99.90;;;;;;4144444;28;20222;-79
2022/08/20 09:33:19;;;;;;;73.90;26.63;;;19.10;99.90;;;;;;4144945;28;20207;-79
2022/08/20 09:35:22;;;;;;;73.80;28.00;;;19.00;99.90;;;;;;4137726;28;20236;-79
2022/08/20 09:37:25;;;;;;;73.60;29.00;;;19.10;99.90;;;;;;4155083;28;20221;-79
2022/08/20 09:39:28;;;;;;;73.03;29.27;;;19.00;99.90;;;;;;4155386;28;20242;-79
2022/08/20 09:41:31;;;;;;;77.97;29.13;;;19.10;99.90;;;;;;4141907;28;20210;-79
2022/08/20 09:43:33;;;;;;;73.57;27.53;;;19.00;99.90;;;;;;4140050;28;20871;-81
2022/08/20 09:45:35;;;;;;;70.37;25.93;;;19.10;99.90;;;;;;4136897;28;20779;-81
2022/08/20 09:47:37;;;;;;;59.93;23.67;;;19.20;99.90;;;;;;4138630;28;20653;-79
2022/08/20 09:49:39;;;;;;;60.37;23.90;;;19.20;99.90;;;;;;4154562;28;20253;-79
2022/08/20 09:51:41;;;;;;;54.00;22.83;;;19.20;99.90;;;;;;4158456;28;20201;-78
2022/08/20 09:53:44;;;;;;;56.17;22.73;;;19.30;99.90;;;;;;4153016;28;20260;-78
2022/08/20 09:55:51;;;;;;;62.63;23.43;;;19.30;99.90;;;;;;4154984;28;20206;-80
2022/08/20 09:57:53;;;;;;;58.57;24.43;;;19.30;99.90;;;;;;4150929;28;20724;-79
2022/08/20 09:59:59;;;;;;;61.27;24.57;;;19.40;99.90;;;;;;4152454;28;20332;-79
2022/08/20 10:02:01;;;;;;;59.17;23.37;;;19.40;99.90;;;;;;4159050;28;20687;-79
2022/08/20 10:04:03;;;;;;;50.97;21.80;;;19.50;99.90;;;;;;4155599;28;20228;-79
2022/08/20 10:06:05;;;;;;;59.97;23.90;;;19.50;99.90;;;;;;4155773;28;20220;-79
2022/08/20 10:08:09;;;;;;;68.20;28.83;;;19.50;99.90;;;;;;4159100;28;20298;-80
2022/08/20 10:10:13;;;;;;;69.87;26.37;;;19.50;99.90;;;;;;4159065;28;20214;-78
2022/08/20 10:12:16;;;;;;;66.40;27.03;;;19.50;99.90;;;;;;4152665;28;20647;-79
2022/08/20 10:14:18;;;;;;;77.37;29.27;;;19.50;99.90;;;;;;4137957;28;20257;-80
2022/08/20 10:16:20;;;;;;;83.10;30.13;;;19.50;99.90;;;;;;4158014;28;20667;-80
2022/08/20 10:18:22;;;;;;;78.70;30.90;;;19.40;99.90;;;;;;4154849;28;20225;-79
2022/08/20 10:20:25;;;;;;;81.53;29.93;;;19.50;99.90;;;;;;4136429;28;20234;-79
2022/08/20 10:22:27;;;;;;;71.33;27.17;;;19.40;99.90;;;;;;4156749;28;20214;-80
2022/08/20 10:24:29;;;;;;;77.93;29.97;;;19.40;99.90;;;;;;4137038;28;20239;-78
2022/08/20 10:26:31;;;;;;;77.70;28.43;;;19.50;99.90;;;;;;4156953;28;20580;-79
2022/08/20 10:28:35;;;;;;;75.30;28.10;;;19.50;99.90;;;;;;4154622;28;20292;-79